Time;durP1;ratioP1;P1;durP2;ratioP2;P2;SDS_P1;SDS_P2;PMS_P1;PMS_P2;Temp;Humidity;BMP_temperature;BMP_pressure;BME280_temperature;BME280_humidity;BME280_pressure;Samples;Min_cycle;Max_cycle;Signal;HPM_P1;HPM_P2
2022/08/02 00:01:54;;;;;;;1.48;0.68;;;23.60;82.80;;;;;;5038096;28;45420;-69
2022/08/02 00:04:21;;;;;;;1.38;0.90;;;23.60;82.80;;;;;;5037855;28;45378;-68
2022/08/02 00:06:47;;;;;;;0.82;0.77;;;23.60;82.90;;;;;;5038161;28;47098;-68
2022/08/02 00:09:15;;;;;;;0.70;0.70;;;23.60;83.00;;;;;;5036462;28;45403;-69
2022/08/02 00:11:43;;;;;;;0.77;0.70;;;23.60;82.80;;;;;;5038338;28;45452;-69
2022/08/02 00:14:09;;;;;;;1.73;0.65;;;23.60;82.70;;;;;;5037738;28;45582;-69
2022/08/02 00:16:36;;;;;;;1.00;0.80;;;23.60;82.70;;;;;;5038319;27;46560;-69
2022/08/02 00:19:04;;;;;;;0.60;0.60;;;23.60;82.40;;;;;;5041519;27;45291;-70
2022/08/02 00:21:31;;;;;;;1.42;0.70;;;23.60;82.40;;;;;;5044522;27;45549;-69
2022/08/02 00:23:57;;;;;;;0.73;0.60;;;23.60;82.50;;;;;;5043051;27;45398;-68
2022/08/02 00:26:24;;;;;;;0.85;0.75;;;23.60;82.20;;;;;;5035985;28;45339;-69
2022/08/02 00:28:52;;;;;;;0.82;0.80;;;23.60;82.20;;;;;;5037546;28;45639;-68
2022/08/02 00:31:19;;;;;;;1.33;1.00;;;23.60;83.30;;;;;;5037462;28;45581;-68
2022/08/02 00:33:46;;;;;;;0.70;0.68;;;23.60;82.10;;;;;;5037431;28;45436;-69
2022/08/02 00:36:13;;;;;;;1.58;0.90;;;23.60;82.00;;;;;;5037360;27;47266;-69
2022/08/02 00:38:40;;;;;;;2.80;0.80;;;23.60;81.90;;;;;;5037392;28;45288;-69
2022/08/02 00:41:13;;;;;;;1.20;0.70;;;23.60;82.10;;;;;;5036695;28;45299;-68
2022/08/02 00:43:40;;;;;;;1.45;0.75;;;23.60;82.10;;;;;;5037260;27;45850;-68
2022/08/02 00:46:08;;;;;;;1.17;0.80;;;23.60;81.60;;;;;;5036520;28;46091;-68
2022/08/02 00:48:35;;;;;;;0.95;0.77;;;23.60;81.40;;;;;;5036521;27;46028;-68
2022/08/02 00:51:02;;;;;;;1.27;0.60;;;23.60;81.40;;;;;;5035201;28;45439;-68
2022/08/02 00:53:28;;;;;;;1.45;0.73;;;23.60;81.50;;;;;;5037192;28;45408;-69
2022/08/02 00:55:55;;;;;;;1.98;0.80;;;23.60;81.40;;;;;;5036911;28;46626;-68
2022/08/02 00:58:22;;;;;;;1.13;0.80;;;23.60;81.40;;;;;;5036428;28;45262;-68
2022/08/02 01:00:49;;;;;;;1.42;0.70;;;23.60;81.60;;;;;;5036819;28;45414;-69
2022/08/02 01:03:17;;;;;;;0.85;0.70;;;23.60;81.70;;;;;;5036219;28;45326;-69
2022/08/02 01:05:44;;;;;;;1.30;0.80;;;23.60;81.40;;;;;;5037223;28;46578;-69
2022/08/02 01:08:11;;;;;;;1.00;0.70;;;23.60;81.40;;;;;;5036546;28;45824;-69
2022/08/02 01:10:38;;;;;;;0.68;0.68;;;23.60;81.40;;;;;;5030623;28;45376;-68
2022/08/02 01:13:05;;;;;;;1.80;1.05;;;23.60;81.40;;;;;;5036791;28;45551;-68
2022/08/02 01:15:35;;;;;;;0.93;0.73;;;23.60;81.40;;;;;;5033369;27;48013;-69
2022/08/02 01:18:08;;;;;;;1.60;0.88;;;23.60;81.40;;;;;;5030766;28;45500;-68
2022/08/02 01:21:01;;;;;;;1.23;0.80;;;23.60;81.40;;;;;;5036531;27;45429;-69
2022/08/02 01:23:43;;;;;;;1.00;0.73;;;23.60;81.40;;;;;;5040350;28;45653;-69
2022/08/02 01:26:25;;;;;;;0.70;0.60;;;23.60;81.40;;;;;;5038077;28;46577;-68
2022/08/02 01:29:01;;;;;;;1.05;0.73;;;23.60;81.40;;;;;;5035681;27;45508;-68
2022/08/02 01:31:32;;;;;;;1.10;0.68;;;23.60;81.70;;;;;;5040104;28;45282;-69
2022/08/02 01:34:11;;;;;;;0.70;0.70;;;23.60;81.70;;;;;;5040292;28;45408;-68
2022/08/02 01:36:41;;;;;;;1.65;0.90;;;23.60;81.40;;;;;;5032855;28;45437;-68
2022/08/02 01:39:13;;;;;;;1.48;0.80;;;23.60;82.40;;;;;;5037136;27;46462;-70
2022/08/02 01:41:41;;;;;;;1.00;0.70;;;23.60;81.40;;;;;;5033583;28;45308;-68
2022/08/02 01:44:11;;;;;;;0.98;0.80;;;23.60;81.40;;;;;;5039379;27;45440;-70
2022/08/02 01:46:40;;;;;;;1.13;0.60;;;23.60;81.40;;;;;;5038457;28;46320;-69
2022/08/02 01:49:12;;;;;;;1.55;0.80;;;23.60;81.40;;;;;;5038372;28;45388;-69
2022/08/02 01:54:30;;;;;;;1.33;0.80;;;23.60;81.40;;;;;;5035711;28;45319;-68
2022/08/02 01:56:58;;;;;;;0.60;0.60;;;23.60;81.40;;;;;;5039445;28;47078;-69
2022/08/02 01:59:30;;;;;;;1.77;0.80;;;23.60;81.40;;;;;;5038225;28;45347;-68
2022/08/02 02:01:59;;;;;;;0.82;0.70;;;23.60;81.40;;;;;;5039128;28;45356;-69
2022/08/02 02:04:30;;;;;;;1.10;0.70;;;23.60;81.40;;;;;;5038412;28;45293;-69
2022/08/02 02:06:57;;;;;;;1.35;0.88;;;23.60;81.40;;;;;;5035590;28;45384;-69
2022/08/02 02:09:28;;;;;;;0.60;0.60;;;23.60;81.40;;;;;;5038086;27;45321;-68
2022/08/02 02:11:57;;;;;;;0.75;0.65;;;23.60;81.40;;;;;;5039402;28;45374;-69
2022/08/02 02:14:27;;;;;;;0.77;0.65;;;23.50;80.40;;;;;;5048355;28;45523;-68
2022/08/02 02:16:55;;;;;;;0.85;0.80;;;23.50;80.30;;;;;;5038195;28;45290;-69
2022/08/02 02:19:23;;;;;;;0.98;0.75;;;23.50;80.80;;;;;;5036505;28;45459;-68
2022/08/02 02:21:50;;;;;;;0.75;0.75;;;23.50;80.40;;;;;;5039140;28;45336;-69
2022/08/02 02:24:17;;;;;;;0.93;0.82;;;23.50;80.30;;;;;;5036826;28;45501;-68
2022/08/02 02:26:46;;;;;;;1.13;0.77;;;23.50;80.30;;;;;;5037970;28;47496;-69
2022/08/02 02:29:14;;;;;;;1.13;0.70;;;23.50;80.40;;;;;;5035308;28;45536;-69
2022/08/02 02:31:45;;;;;;;0.73;0.70;;;23.50;80.30;;;;;;5035458;28;45448;-69
2022/08/02 02:34:16;;;;;;;0.85;0.60;;;23.50;80.20;;;;;;5036848;28;45468;-69
2022/08/02 02:36:48;;;;;;;0.73;0.73;;;23.50;80.10;;;;;;5037976;28;45473;-69
2022/08/02 02:39:17;;;;;;;0.88;0.70;;;23.50;80.00;;;;;;5036349;28;45582;-69
2022/08/02 02:41:45;;;;;;;0.90;0.70;;;23.50;80.10;;;;;;5037637;28;45381;-69
2022/08/02 02:44:18;;;;;;;1.83;0.88;;;23.50;80.10;;;;;;5037349;28;45404;-69
2022/08/02 02:46:50;;;;;;;0.77;0.68;;;23.50;80.10;;;;;;5035225;27;46130;-68
2022/08/02 02:49:18;;;;;;;0.80;0.70;;;23.50;79.90;;;;;;5033149;28;45584;-68
2022/08/02 02:51:46;;;;;;;1.33;0.80;;;23.50;79.80;;;;;;5036911;28;45403;-69
2022/08/02 02:54:13;;;;;;;1.40;0.90;;;23.50;79.70;;;;;;5035019;28;45300;-69
2022/08/02 02:56:42;;;;;;;0.80;0.70;;;23.50;79.70;;;;;;5036504;28;46116;-68
2022/08/02 02:59:10;;;;;;;0.85;0.60;;;23.50;79.80;;;;;;5033259;28;45319;-69
2022/08/02 03:01:37;;;;;;;1.00;0.82;;;23.50;79.70;;;;;;5036094;28;45459;-69
2022/08/02 03:04:09;;;;;;;0.80;0.70;;;23.50;79.60;;;;;;5037074;28;45371;-69
2022/08/02 03:06:36;;;;;;;0.70;0.70;;;23.50;79.70;;;;;;5035035;28;45454;-69
2022/08/02 03:09:04;;;;;;;1.35;0.80;;;23.50;79.60;;;;;;5036914;28;45376;-70
2022/08/02 03:11:31;;;;;;;0.88;0.73;;;23.50;79.40;;;;;;5037317;28;45366;-69
2022/08/02 03:14:00;;;;;;;1.27;0.77;;;23.50;79.40;;;;;;5037258;28;45358;-69
2022/08/02 03:16:28;;;;;;;1.95;0.70;;;23.50;79.40;;;;;;5034148;27;48198;-69
2022/08/02 03:18:55;;;;;;;1.95;0.90;;;23.50;79.40;;;;;;5031099;28;45429;-69
2022/08/02 03:21:24;;;;;;;1.00;0.80;;;23.50;79.40;;;;;;5033241;28;45459;-68
2022/08/02 03:23:51;;;;;;;1.00;0.80;;;23.50;79.50;;;;;;5023991;28;45423;-69
2022/08/02 03:26:18;;;;;;;0.50;0.50;;;23.50;79.90;;;;;;4997796;28;1116840;-69
2022/08/02 03:28:44;;;;;;;0.80;0.70;;;23.50;79.20;;;;;;5038870;28;45445;-68
2022/08/02 03:31:11;;;;;;;0.93;0.88;;;23.50;79.10;;;;;;5037384;28;45533;-69
2022/08/02 03:33:39;;;;;;;0.82;0.63;;;23.50;79.10;;;;;;5032921;28;45372;-69
2022/08/02 03:36:10;;;;;;;1.77;0.88;;;23.50;79.10;;;;;;5037571;28;46572;-68
2022/08/02 03:38:39;;;;;;;1.63;0.80;;;23.50;78.60;;;;;;5038815;27;45821;-69
2022/08/02 03:41:06;;;;;;;0.73;0.73;;;23.50;78.60;;;;;;5036988;28;45388;-68
2022/08/02 03:43:33;;;;;;;1.30;0.73;;;23.50;78.60;;;;;;5037733;27;45202;-68
2022/08/02 03:46:01;;;;;;;1.05;0.68;;;23.50;78.60;;;;;;5038195;28;46632;-68
2022/08/02 03:48:29;;;;;;;0.73;0.70;;;23.50;78.70;;;;;;5038460;28;45510;-68
2022/08/02 03:50:56;;;;;;;1.30;0.80;;;23.50;78.50;;;;;;5037022;27;45845;-68
2022/08/02 03:53:24;;;;;;;1.00;0.73;;;23.50;78.70;;;;;;5036800;28;45447;-68
2022/08/02 03:55:54;;;;;;;1.40;0.93;;;23.50;78.50;;;;;;5038216;28;45494;-68
2022/08/02 03:58:22;;;;;;;0.60;0.60;;;23.50;78.50;;;;;;5036908;28;45340;-70
2022/08/02 04:00:49;;;;;;;0.85;0.80;;;23.40;78.50;;;;;;5035764;27;45353;-69
2022/08/02 04:03:16;;;;;;;1.05;0.70;;;23.50;78.40;;;;;;5037186;28;45625;-68
2022/08/02 04:05:43;;;;;;;0.70;0.70;;;23.40;78.50;;;;;;5038501;28;47236;-69
2022/08/02 04:08:10;;;;;;;0.82;0.82;;;23.40;78.50;;;;;;5033533;28;45441;-68
2022/08/02 04:13:20;;;;;;;0.70;0.70;;;23.40;78.40;;;;;;5036743;27;45471;-68
2022/08/02 04:15:50;;;;;;;0.85;0.60;;;23.40;78.40;;;;;;5036802;28;48054;-70
2022/08/02 04:18:19;;;;;;;1.65;1.25;;;23.50;79.10;;;;;;5035450;28;45403;-68
2022/08/02 04:20:48;;;;;;;1.17;0.98;;;23.50;78.50;;;;;;5037586;28;45375;-68
2022/08/02 04:23:17;;;;;;;1.40;0.93;;;23.50;78.90;;;;;;5037606;28;45391;-69
2022/08/02 04:25:45;;;;;;;1.15;0.90;;;23.50;78.90;;;;;;5037593;28;47069;-68
2022/08/02 04:28:15;;;;;;;1.38;1.00;;;23.50;79.30;;;;;;5036598;27;45882;-69
2022/08/02 04:30:44;;;;;;;1.95;1.20;;;23.50;78.90;;;;;;5036250;28;45544;-69
2022/08/02 04:33:12;;;;;;;1.25;0.95;;;23.50;78.40;;;;;;5037238;28;45378;-69
2022/08/02 04:35:38;;;;;;;1.80;1.17;;;23.50;78.00;;;;;;5030733;28;47007;-68
2022/08/02 04:38:06;;;;;;;1.40;0.90;;;23.50;77.50;;;;;;5035344;28;46271;-68
2022/08/02 04:41:13;;;;;;;1.20;1.10;;;23.50;77.10;;;;;;5035469;27;45305;-68
2022/08/02 04:43:40;;;;;;;1.85;1.30;;;23.50;75.50;;;;;;5033712;28;45465;-68
2022/08/02 04:46:08;;;;;;;3.72;1.40;;;23.50;75.70;;;;;;5033715;27;45590;-69
2022/08/02 04:48:34;;;;;;;2.05;1.23;;;23.50;75.70;;;;;;5033703;27;45448;-69
2022/08/02 04:51:01;;;;;;;1.45;1.10;;;23.50;76.30;;;;;;5031068;27;45356;-70
2022/08/02 04:53:28;;;;;;;2.42;1.25;;;23.50;76.70;;;;;;5035143;27;45376;-69
2022/08/02 04:55:55;;;;;;;1.55;1.15;;;23.50;77.50;;;;;;5034497;27;47754;-69
2022/08/02 04:58:21;;;;;;;1.98;1.08;;;23.50;77.90;;;;;;5043207;27;45534;-68
2022/08/02 05:00:48;;;;;;;1.63;1.00;;;23.50;78.20;;;;;;5023873;28;45323;-70
2022/08/02 05:03:16;;;;;;;1.60;1.08;;;23.60;78.40;;;;;;5038274;28;45570;-69
2022/08/02 05:05:43;;;;;;;1.92;1.00;;;23.50;78.40;;;;;;5037314;28;47967;-69
2022/08/02 05:08:10;;;;;;;1.13;1.02;;;23.60;78.60;;;;;;5039273;27;45445;-69
2022/08/02 05:10:37;;;;;;;1.52;0.95;;;23.60;78.70;;;;;;5038650;28;45377;-69
2022/08/02 05:13:05;;;;;;;1.73;1.00;;;23.60;78.70;;;;;;5039475;27;45437;-68
2022/08/02 05:15:32;;;;;;;1.98;0.80;;;23.60;78.80;;;;;;5039269;27;45272;-69
2022/08/02 05:17:58;;;;;;;1.70;1.17;;;23.60;78.80;;;;;;5039146;28;45356;-68
2022/08/02 05:20:27;;;;;;;1.13;0.90;;;23.60;79.80;;;;;;5038666;28;45429;-68
2022/08/02 05:22:53;;;;;;;1.05;0.80;;;23.60;78.90;;;;;;5039417;28;45205;-68
2022/08/02 05:25:20;;;;;;;1.20;1.10;;;23.60;78.90;;;;;;5038763;28;46314;-69
2022/08/02 05:27:47;;;;;;;2.97;0.95;;;23.60;78.90;;;;;;5039042;28;45365;-68
2022/08/02 05:30:14;;;;;;;1.65;0.95;;;23.60;79.00;;;;;;5038851;28;45413;-68
2022/08/02 05:32:47;;;;;;;1.00;0.90;;;23.60;79.00;;;;;;5039498;27;45314;-68
2022/08/02 05:35:17;;;;;;;1.50;1.10;;;23.60;79.10;;;;;;5038856;28;45441;-69
2022/08/02 05:37:46;;;;;;;1.85;0.90;;;23.60;79.10;;;;;;5039178;28;45304;-68
2022/08/02 05:40:12;;;;;;;0.80;0.80;;;23.60;79.10;;;;;;5038562;28;45363;-68
2022/08/02 05:42:39;;;;;;;1.20;1.00;;;23.60;79.20;;;;;;5038836;28;45418;-68
2022/08/02 05:45:07;;;;;;;1.05;0.90;;;23.60;79.30;;;;;;5038342;28;47617;-68
2022/08/02 05:47:34;;;;;;;0.90;0.90;;;23.60;79.20;;;;;;5038963;28;45405;-68
2022/08/02 05:50:01;;;;;;;1.20;1.02;;;23.60;79.30;;;;;;5038286;28;45235;-68
2022/08/02 05:52:41;;;;;;;1.20;0.80;;;23.60;79.40;;;;;;5038920;28;45360;-69
2022/08/02 05:55:15;;;;;;;1.30;0.90;;;23.60;79.50;;;;;;5038530;28;46522;-68
2022/08/02 05:57:50;;;;;;;1.20;1.10;;;23.60;79.50;;;;;;5036109;28;45346;-68
2022/08/02 06:00:17;;;;;;;1.40;0.90;;;23.60;79.50;;;;;;5037638;28;45273;-69
2022/08/02 06:02:53;;;;;;;1.23;0.80;;;23.60;79.60;;;;;;5038054;28;45398;-68
2022/08/02 06:05:21;;;;;;;0.80;0.73;;;23.60;79.60;;;;;;5037480;28;46398;-70
2022/08/02 06:07:49;;;;;;;1.65;1.08;;;23.60;79.60;;;;;;5039893;28;45367;-68
2022/08/02 06:10:21;;;;;;;1.00;0.90;;;23.60;79.70;;;;;;5041259;28;45431;-68
2022/08/02 06:12:50;;;;;;;1.70;0.90;;;23.60;79.80;;;;;;5041001;28;45499;-69
2022/08/02 06:15:19;;;;;;;1.75;1.00;;;23.60;79.80;;;;;;5039828;28;45482;-69
2022/08/02 06:17:46;;;;;;;2.15;1.00;;;23.60;79.90;;;;;;5042985;28;46343;-68
2022/08/02 06:20:14;;;;;;;1.38;0.90;;;23.60;80.00;;;;;;5043024;28;45321;-68
2022/08/02 06:22:43;;;;;;;1.20;1.02;;;23.60;80.00;;;;;;5041093;28;45367;-68
2022/08/02 06:25:11;;;;;;;1.55;1.00;;;23.60;80.00;;;;;;5041021;28;47607;-68
2022/08/02 06:27:40;;;;;;;1.42;0.98;;;23.60;80.10;;;;;;5041194;27;45327;-68
2022/08/02 06:30:09;;;;;;;1.33;0.90;;;23.60;80.10;;;;;;5040833;28;45285;-68
2022/08/02 06:32:36;;;;;;;1.38;0.95;;;23.60;80.10;;;;;;5041777;28;45283;-68
2022/08/02 06:35:05;;;;;;;1.00;0.90;;;23.60;80.20;;;;;;5041377;28;45389;-68
2022/08/02 06:37:38;;;;;;;1.58;0.80;;;23.60;80.20;;;;;;5026611;28;45343;-68
2022/08/02 06:40:11;;;;;;;1.50;1.00;;;23.60;80.30;;;;;;5026873;28;45407;-68
2022/08/02 06:42:47;;;;;;;1.83;1.00;;;23.60;80.40;;;;;;5041818;27;45404;-68
2022/08/02 06:45:14;;;;;;;2.13;1.10;;;23.60;80.60;;;;;;5041018;28;45392;-69
2022/08/02 06:47:41;;;;;;;2.03;1.05;;;23.60;80.60;;;;;;5040850;28;45468;-68
2022/08/02 06:50:09;;;;;;;1.10;1.00;;;23.60;80.60;;;;;;5040742;27;45321;-68
2022/08/02 06:52:36;;;;;;;0.82;0.75;;;23.60;80.70;;;;;;5040760;28;45576;-68
2022/08/02 06:55:05;;;;;;;1.42;1.20;;;23.60;80.80;;;;;;5040893;27;47117;-68
2022/08/02 06:57:32;;;;;;;0.93;0.80;;;23.60;81.00;;;;;;5040658;28;45456;-69
2022/08/02 07:00:02;;;;;;;1.92;1.25;;;23.60;81.00;;;;;;5040195;28;45309;-68
2022/08/02 07:02:29;;;;;;;1.20;0.90;;;23.60;81.20;;;;;;5039131;28;45344;-69
2022/08/02 07:04:55;;;;;;;1.80;0.75;;;23.60;81.30;;;;;;5036424;28;48329;-69
2022/08/02 07:07:22;;;;;;;1.67;0.98;;;23.60;81.40;;;;;;5035022;28;45264;-68
2022/08/02 07:09:50;;;;;;;2.20;0.93;;;23.60;81.40;;;;;;5040185;28;45464;-69
2022/08/02 07:12:16;;;;;;;1.80;1.13;;;23.60;81.40;;;;;;5041010;27;45442;-68
2022/08/02 07:14:43;;;;;;;0.80;0.80;;;23.60;81.40;;;;;;5040527;28;47252;-69
2022/08/02 07:17:11;;;;;;;1.58;1.00;;;23.60;81.40;;;;;;5040620;28;45365;-69
2022/08/02 07:19:38;;;;;;;0.98;0.88;;;23.60;81.40;;;;;;5018953;27;45420;-68
2022/08/02 07:22:05;;;;;;;1.80;1.00;;;23.60;81.40;;;;;;5021187;27;45363;-68
2022/08/02 07:24:32;;;;;;;26.60;3.45;;;23.60;81.40;;;;;;5038923;28;47507;-67
2022/08/02 07:26:59;;;;;;;21.83;3.38;;;23.70;81.50;;;;;;5040002;28;45309;-68
2022/08/02 07:29:26;;;;;;;21.23;3.47;;;23.70;81.40;;;;;;5039956;28;45476;-69
2022/08/02 07:31:53;;;;;;;19.40;3.10;;;23.70;81.40;;;;;;5040461;27;45414;-67
2022/08/02 07:34:21;;;;;;;18.50;2.60;;;23.70;81.40;;;;;;5040174;28;47840;-68
2022/08/02 07:36:48;;;;;;;6.15;1.88;;;23.70;81.40;;;;;;5039909;28;45420;-67
2022/08/02 07:39:15;;;;;;;4.03;1.15;;;23.70;81.40;;;;;;5040594;28;45476;-68
2022/08/02 07:41:42;;;;;;;2.92;1.25;;;23.70;81.50;;;;;;5037672;27;45365;-68
2022/08/02 07:44:09;;;;;;;4.93;1.50;;;23.70;81.40;;;;;;5040430;27;47378;-68
2022/08/02 07:46:35;;;;;;;2.65;1.38;;;23.70;81.40;;;;;;5039909;28;45389;-67
2022/08/02 07:49:02;;;;;;;2.90;1.25;;;23.70;81.40;;;;;;5041470;27;45350;-68
2022/08/02 07:51:32;;;;;;;1.23;1.00;;;23.70;81.40;;;;;;5039478;28;45408;-67
2022/08/02 07:53:58;;;;;;;3.40;1.33;;;23.70;81.40;;;;;;5039575;28;47253;-68
2022/08/02 07:56:26;;;;;;;3.55;1.20;;;23.70;81.40;;;;;;5039141;27;45326;-68
2022/08/02 07:58:53;;;;;;;3.47;1.10;;;23.70;81.40;;;;;;5039188;28;45515;-67
2022/08/02 08:01:20;;;;;;;1.83;0.98;;;23.70;81.40;;;;;;5039446;27;45343;-68
2022/08/02 08:03:46;;;;;;;4.90;1.30;;;23.70;81.40;;;;;;5039423;27;48065;-67
2022/08/02 08:06:13;;;;;;;2.58;1.50;;;23.70;81.40;;;;;;5038478;27;45434;-68
2022/08/02 08:08:42;;;;;;;1.17;0.80;;;23.70;81.40;;;;;;5039677;27;45371;-68
2022/08/02 08:11:09;;;;;;;3.20;1.20;;;23.70;81.40;;;;;;5039312;27;45599;-68
2022/08/02 08:13:35;;;;;;;3.55;1.35;;;23.70;81.40;;;;;;5036617;28;48072;-67
2022/08/02 08:16:02;;;;;;;3.85;1.10;;;23.70;81.40;;;;;;5031983;28;45443;-67
2022/08/02 08:18:29;;;;;;;2.20;0.98;;;23.70;81.40;;;;;;5020235;28;45452;-68
2022/08/02 08:20:56;;;;;;;2.17;1.10;;;23.70;81.40;;;;;;5019485;28;45560;-67
2022/08/02 08:23:23;;;;;;;1.25;0.85;;;23.80;81.50;;;;;;5019505;28;47514;-68
2022/08/02 08:25:51;;;;;;;2.88;1.33;;;23.80;81.60;;;;;;5032419;28;45347;-68
2022/08/02 08:28:18;;;;;;;1.95;1.40;;;23.80;81.50;;;;;;5038345;27;45459;-68
2022/08/02 08:30:46;;;;;;;1.73;0.85;;;23.80;81.50;;;;;;5037649;28;45478;-67
2022/08/02 08:33:13;;;;;;;1.90;1.00;;;23.80;81.50;;;;;;5038586;28;46421;-67
2022/08/02 08:35:39;;;;;;;2.65;0.98;;;23.80;81.50;;;;;;5039564;27;46871;-68
2022/08/02 08:38:07;;;;;;;1.33;0.95;;;23.80;81.50;;;;;;5039876;28;45492;-67
2022/08/02 08:40:35;;;;;;;4.20;1.10;;;23.80;81.50;;;;;;5040828;27;45307;-67
2022/08/02 08:43:04;;;;;;;2.90;0.88;;;23.80;81.60;;;;;;5020681;27;45460;-67
2022/08/02 08:45:31;;;;;;;2.42;0.95;;;23.80;82.60;;;;;;5019576;28;45837;-68
2022/08/02 08:48:01;;;;;;;2.10;0.90;;;23.80;81.60;;;;;;5019718;28;45425;-68
2022/08/02 08:50:32;;;;;;;5.63;1.40;;;23.80;81.50;;;;;;5033872;28;45493;-68
2022/08/02 08:53:04;;;;;;;2.13;1.02;;;23.80;81.50;;;;;;5038670;28;46362;-68
2022/08/02 08:55:32;;;;;;;1.80;0.77;;;23.80;81.50;;;;;;5048974;27;45302;-68
2022/08/02 08:58:01;;;;;;;1.13;1.02;;;23.80;81.50;;;;;;5124196;27;45514;-67
2022/08/02 09:00:30;;;;;;;1.20;1.10;;;23.80;81.50;;;;;;5123242;27;45489;-68
2022/08/02 09:02:58;;;;;;;2.10;1.08;;;23.80;81.50;;;;;;5123654;27;48047;-68
2022/08/02 09:05:25;;;;;;;2.58;1.00;;;23.80;81.50;;;;;;5038581;27;45341;-68
2022/08/02 09:07:53;;;;;;;2.38;1.05;;;23.80;81.60;;;;;;5019180;28;45454;-67
2022/08/02 09:10:38;;;;;;;1.50;1.00;;;23.80;81.50;;;;;;5019111;27;45454;-68
2022/08/02 09:13:15;;;;;;;1.35;0.90;;;23.80;81.50;;;;;;5018209;28;45514;-67
2022/08/02 09:15:46;;;;;;;0.80;0.70;;;23.80;81.50;;;;;;5037388;28;45338;-68
2022/08/02 09:18:13;;;;;;;1.48;1.10;;;23.80;81.50;;;;;;5037841;27;45385;-68
2022/08/02 09:20:56;;;;;;;1.75;1.10;;;23.80;81.50;;;;;;5038350;27;45581;-68
2022/08/02 09:23:23;;;;;;;2.20;1.05;;;23.80;81.60;;;;;;5038492;28;48007;-68
2022/08/02 09:25:58;;;;;;;2.45;1.20;;;23.90;81.60;;;;;;5038301;28;45313;-67
2022/08/02 09:28:29;;;;;;;2.63;1.10;;;23.80;81.50;;;;;;5037981;27;45297;-68
2022/08/02 09:31:06;;;;;;;0.75;0.73;;;23.90;81.60;;;;;;5038355;28;45574;-67
2022/08/02 09:33:33;;;;;;;2.10;0.85;;;23.90;81.60;;;;;;5038923;28;45470;-68
2022/08/02 09:36:02;;;;;;;1.85;0.90;;;23.90;81.60;;;;;;5038707;28;45386;-67
2022/08/02 09:38:29;;;;;;;0.80;0.80;;;23.90;81.60;;;;;;5037007;27;45624;-68
2022/08/02 09:40:56;;;;;;;1.23;0.90;;;23.90;81.60;;;;;;5037969;27;45550;-68
2022/08/02 09:43:36;;;;;;;1.48;1.17;;;23.90;81.60;;;;;;5040399;27;47390;-68
2022/08/02 09:46:12;;;;;;;2.03;1.00;;;24.00;81.70;;;;;;5038718;28;45437;-67
2022/08/02 09:48:53;;;;;;;1.85;1.10;;;24.00;81.70;;;;;;5040167;28;45256;-68
2022/08/02 09:51:22;;;;;;;1.42;1.05;;;24.00;81.70;;;;;;5021446;28;45574;-67
2022/08/02 09:53:50;;;;;;;2.50;0.82;;;24.00;81.70;;;;;;5021203;28;46096;-67
2022/08/02 09:56:18;;;;;;;1.73;0.95;;;24.00;81.70;;;;;;5021046;28;45309;-67
2022/08/02 09:58:46;;;;;;;2.80;1.10;;;24.00;81.70;;;;;;5022238;28;45479;-67
2022/08/02 10:01:14;;;;;;;2.33;1.10;;;24.00;81.40;;;;;;5021697;28;45233;-68
2022/08/02 10:03:55;;;;;;;1.33;0.80;;;24.00;81.00;;;;;;5021552;28;46610;-68
2022/08/02 10:06:22;;;;;;;2.42;0.77;;;24.00;80.60;;;;;;5021142;28;45291;-68
2022/08/02 10:08:49;;;;;;;1.10;0.70;;;24.00;80.70;;;;;;5021380;28;45385;-67
2022/08/02 10:11:16;;;;;;;1.83;1.10;;;24.00;80.80;;;;;;5021198;28;45346;-68
2022/08/02 10:13:44;;;;;;;0.70;0.70;;;24.00;80.70;;;;;;5021369;28;48974;-67
2022/08/02 10:16:11;;;;;;;2.58;1.08;;;24.00;80.10;;;;;;5021723;28;45557;-69
2022/08/02 10:18:39;;;;;;;2.13;1.00;;;24.00;80.10;;;;;;5021407;28;45361;-67
2022/08/02 10:21:10;;;;;;;2.13;0.95;;;24.00;80.30;;;;;;5022047;28;45266;-69
2022/08/02 10:23:39;;;;;;;1.35;0.93;;;24.00;80.30;;;;;;5021521;28;47318;-68
2022/08/02 10:26:07;;;;;;;2.75;0.90;;;24.00;80.20;;;;;;5020500;28;45375;-68
2022/08/02 10:28:34;;;;;;;1.52;1.10;;;24.00;80.50;;;;;;5021647;28;45308;-67
2022/08/02 10:31:05;;;;;;;1.35;0.80;;;24.00;80.10;;;;;;5020700;28;45283;-67
2022/08/02 10:33:34;;;;;;;1.08;0.70;;;24.00;80.10;;;;;;5018606;28;46377;-67
2022/08/02 10:36:04;;;;;;;0.77;0.70;;;24.00;80.00;;;;;;5021313;27;45297;-68
2022/08/02 10:38:31;;;;;;;1.58;0.70;;;24.00;80.10;;;;;;5021542;28;45497;-68
2022/08/02 10:40:57;;;;;;;1.27;0.90;;;24.00;80.50;;;;;;5023195;28;45304;-68
2022/08/02 10:43:44;;;;;;;0.73;0.73;;;24.10;80.60;;;;;;5040514;28;47235;-67
2022/08/02 10:46:31;;;;;;;0.70;0.70;;;24.00;80.60;;;;;;5040718;28;45310;-67
2022/08/02 10:49:09;;;;;;;1.20;0.70;;;24.00;80.70;;;;;;5039580;27;45345;-67
2022/08/02 10:51:57;;;;;;;0.90;0.70;;;24.00;80.70;;;;;;5020685;28;45326;-67
2022/08/02 10:54:25;;;;;;;0.80;0.80;;;24.10;80.60;;;;;;5021011;28;45383;-68
2022/08/02 10:56:53;;;;;;;1.20;1.00;;;24.10;80.40;;;;;;5020161;28;45320;-67
2022/08/02 10:59:29;;;;;;;1.45;0.90;;;24.10;80.30;;;;;;5021284;28;45310;-67
2022/08/02 11:02:01;;;;;;;0.70;0.68;;;24.00;80.10;;;;;;5020417;28;45299;-67
2022/08/02 11:04:29;;;;;;;1.10;0.80;;;24.00;80.20;;;;;;5020703;27;45572;-67
2022/08/02 11:07:12;;;;;;;0.95;0.82;;;24.10;80.30;;;;;;5020894;28;45324;-67
2022/08/02 11:09:40;;;;;;;2.17;0.93;;;24.10;80.00;;;;;;5021380;28;45447;-68
2022/08/02 11:12:09;;;;;;;1.13;0.75;;;24.00;80.20;;;;;;5021073;28;45483;-69
2022/08/02 11:14:37;;;;;;;0.95;0.80;;;24.00;80.20;;;;;;5036258;28;48827;-67
2022/08/02 11:17:12;;;;;;;0.93;0.80;;;24.00;80.20;;;;;;5042257;28;45336;-67
2022/08/02 11:20:15;;;;;;;0.70;0.70;;;24.00;80.20;;;;;;5042220;27;45320;-68
2022/08/02 11:22:44;;;;;;;1.00;0.80;;;24.00;80.10;;;;;;5041436;27;45369;-67
2022/08/02 11:25:34;;;;;;;0.98;0.75;;;24.00;80.10;;;;;;5040077;28;45430;-68
2022/08/02 11:28:09;;;;;;;1.67;0.98;;;24.00;79.90;;;;;;5040466;28;45296;-67
2022/08/02 11:30:36;;;;;;;0.70;0.70;;;24.00;80.00;;;;;;5020078;28;45275;-67
2022/08/02 11:33:03;;;;;;;1.83;0.80;;;24.00;80.00;;;;;;5021565;28;45338;-67
2022/08/02 11:35:35;;;;;;;13.20;1.13;;;24.00;80.00;;;;;;5040416;28;45406;-67
2022/08/02 11:38:17;;;;;;;36.53;2.83;;;23.90;80.30;;;;;;5040362;28;45315;-67
2022/08/02 11:40:45;;;;;;;22.40;2.88;;;24.00;81.70;;;;;;5039648;28;45506;-68
2022/08/02 11:43:22;;;;;;;4.63;1.50;;;24.10;81.80;;;;;;5040917;27;45560;-67
2022/08/02 11:45:51;;;;;;;2.63;1.20;;;24.10;81.80;;;;;;5039941;27;47221;-67
2022/08/02 11:48:31;;;;;;;1.48;0.90;;;24.20;81.90;;;;;;5040193;27;45353;-67
2022/08/02 11:51:09;;;;;;;3.00;1.05;;;24.30;83.00;;;;;;5040470;28;45294;-67
2022/08/02 11:53:51;;;;;;;3.13;1.23;;;24.40;82.10;;;;;;5039167;28;45454;-67
2022/08/02 11:56:25;;;;;;;2.47;1.13;;;24.50;82.10;;;;;;5039180;28;46302;-67
2022/08/02 11:59:02;;;;;;;2.83;0.80;;;24.60;82.30;;;;;;5040702;28;45378;-67
2022/08/02 12:01:31;;;;;;;2.33;1.00;;;24.70;82.40;;;;;;5040059;28;45442;-67
2022/08/02 12:03:59;;;;;;;2.00;1.15;;;24.90;82.40;;;;;;5040226;28;45268;-67
2022/08/02 12:06:28;;;;;;;2.55;1.20;;;25.00;82.00;;;;;;5039286;28;47668;-66
2022/08/02 12:09:03;;;;;;;3.13;1.23;;;25.10;81.80;;;;;;5040490;28;45383;-67
2022/08/02 12:11:30;;;;;;;3.10;1.20;;;25.20;81.50;;;;;;5039783;28;45311;-67
2022/08/02 12:13:57;;;;;;;2.72;1.02;;;25.40;81.20;;;;;;5040302;28;45478;-68
2022/08/02 12:19:22;;;;;;;3.05;1.00;;;25.50;80.30;;;;;;5040511;28;45347;-67
2022/08/02 12:21:50;;;;;;;1.30;1.00;;;25.60;79.60;;;;;;5039565;28;45315;-67
2022/08/02 12:24:30;;;;;;;3.28;0.90;;;25.70;80.10;;;;;;5039768;28;45256;-67
2022/08/02 12:26:57;;;;;;;2.40;1.17;;;25.80;79.40;;;;;;5039701;28;47094;-68
2022/08/02 12:29:31;;;;;;;4.90;1.40;;;25.90;79.40;;;;;;5040076;28;45378;-67
2022/08/02 12:31:58;;;;;;;2.45;1.02;;;25.90;80.10;;;;;;5039630;28;45346;-67
2022/08/02 12:34:26;;;;;;;2.42;1.25;;;25.90;79.30;;;;;;5040105;28;45445;-67
2022/08/02 12:37:04;;;;;;;5.05;1.40;;;25.90;79.30;;;;;;5039902;28;45467;-67
2022/08/02 12:39:38;;;;;;;2.47;1.15;;;25.90;79.10;;;;;;5039906;28;45290;-68
2022/08/02 12:42:07;;;;;;;5.10;1.17;;;25.90;78.40;;;;;;5039617;28;45215;-67
2022/08/02 12:44:36;;;;;;;5.63;1.20;;;25.90;78.30;;;;;;5039267;28;45380;-68
2022/08/02 12:47:05;;;;;;;3.00;1.38;;;25.90;77.70;;;;;;5038429;28;46207;-67
2022/08/02 12:49:32;;;;;;;3.80;1.40;;;25.80;77.90;;;;;;5035212;28;46057;-67
2022/08/02 12:51:59;;;;;;;4.35;1.50;;;25.80;78.10;;;;;;5033400;28;45484;-69
2022/08/02 12:54:28;;;;;;;8.15;2.22;;;25.70;78.20;;;;;;5039208;28;45592;-68
2022/08/02 12:56:56;;;;;;;6.78;2.22;;;25.80;79.40;;;;;;5039330;28;46688;-67
2022/08/02 12:59:36;;;;;;;3.45;1.63;;;25.70;81.20;;;;;;5039343;28;45291;-66
2022/08/02 13:02:05;;;;;;;17.67;3.63;;;25.70;83.10;;;;;;5034696;28;45477;-66
2022/08/02 13:04:32;;;;;;;10.20;1.63;;;25.50;86.60;;;;;;5039194;28;45411;-66
2022/08/02 13:06:59;;;;;;;3.45;1.80;;;25.30;86.30;;;;;;5039404;28;45389;-66